createdAt,value
2019-03-03T00:01:33.683Z,8.30
2019-03-03T00:04:02.731Z,7.80
2019-03-03T00:06:32.056Z,8.10
2019-03-03T00:09:01.131Z,7.62
2019-03-03T00:11:30.087Z,7.40
2019-03-03T00:13:59.748Z,8.03
2019-03-03T00:16:28.719Z,7.50
2019-03-03T00:18:58.112Z,6.53
2019-03-03T00:21:27.754Z,7.00
2019-03-03T00:23:56.805Z,6.13
2019-03-03T00:26:25.912Z,6.50
2019-03-03T00:28:55.245Z,6.00
2019-03-03T00:31:43.693Z,6.17
2019-03-03T00:34:12.747Z,6.30
2019-03-03T00:37:03.957Z,5.87
2019-03-03T00:40:11.197Z,5.35
2019-03-03T00:42:45.349Z,5.40
2019-03-03T00:45:39.653Z,5.30
2019-03-03T00:48:28.341Z,5.30
2019-03-03T00:51:25.781Z,6.00
2019-03-03T00:54:26.228Z,5.22
2019-03-03T00:57:03.871Z,5.37
2019-03-03T00:59:51.972Z,5.40
2019-03-03T01:02:36.289Z,5.03
2019-03-03T01:05:37.002Z,5.22
2019-03-03T01:08:34.333Z,5.58
2019-03-03T01:11:17.021Z,5.40
2019-03-03T01:14:10.923Z,5.03
2019-03-03T01:17:01.877Z,4.90
2019-03-03T01:19:53.133Z,5.30
2019-03-03T01:22:31.020Z,5.15
2019-03-03T01:25:00.331Z,5.78
2019-03-03T01:27:29.366Z,5.00
2019-03-03T01:29:58.660Z,5.30
2019-03-03T01:32:27.881Z,5.20
2019-03-03T01:34:57.313Z,5.87
2019-03-03T01:37:26.721Z,5.30
2019-03-03T01:39:55.771Z,5.60
2019-03-03T01:42:25.117Z,5.58
2019-03-03T01:44:54.076Z,5.58
2019-03-03T01:47:23.031Z,6.00
2019-03-03T01:49:52.091Z,6.35
2019-03-03T01:52:21.696Z,5.90
2019-03-03T01:54:50.648Z,6.15
2019-03-03T01:57:19.615Z,5.80
2019-03-03T01:59:49.291Z,6.20
2019-03-03T02:02:18.697Z,6.87
2019-03-03T02:04:47.941Z,6.20
2019-03-03T02:07:17.007Z,6.10
2019-03-03T02:09:46.084Z,6.47
2019-03-03T02:12:15.677Z,5.85
2019-03-03T02:14:45.042Z,6.10
2019-03-03T02:17:14.397Z,6.40
2019-03-03T02:19:43.348Z,5.95
2019-03-03T02:22:12.389Z,5.70
2019-03-03T02:24:41.768Z,5.90
2019-03-03T02:27:11.173Z,5.93
2019-03-03T02:29:40.137Z,6.53
2019-03-03T02:32:09.565Z,6.53
2019-03-03T02:34:38.522Z,6.78
2019-03-03T02:37:07.569Z,6.80
2019-03-03T02:39:36.853Z,6.28
2019-03-03T02:42:05.918Z,6.90
2019-03-03T02:44:35.427Z,6.92
2019-03-03T02:47:04.797Z,6.70
2019-03-03T02:49:33.853Z,7.17
2019-03-03T02:52:03.657Z,6.78
2019-03-03T02:54:33.052Z,7.40
2019-03-03T02:57:02.113Z,6.90
2019-03-03T02:59:31.448Z,7.28
2019-03-03T03:02:03.309Z,7.10
2019-03-03T03:04:32.749Z,7.22
2019-03-03T03:07:20.446Z,7.22
2019-03-03T03:10:14.687Z,7.85
2019-03-03T03:13:09.106Z,7.50
2019-03-03T03:15:58.687Z,7.50
2019-03-03T03:18:56.023Z,7.42
2019-03-03T03:21:45.030Z,7.55
2019-03-03T03:24:33.154Z,6.78
2019-03-03T03:27:08.704Z,7.45
2019-03-03T03:29:45.900Z,7.30
2019-03-03T03:32:33.014Z,7.20
2019-03-03T03:35:07.422Z,7.50
2019-03-03T03:37:55.545Z,6.97
2019-03-03T03:40:52.774Z,6.55
2019-03-03T03:43:44.228Z,6.45
2019-03-03T03:46:31.463Z,5.85
2019-03-03T03:49:13.051Z,6.55
2019-03-03T03:51:54.973Z,5.72
2019-03-03T03:54:54.017Z,5.10
2019-03-03T03:57:41.356Z,4.73
2019-03-03T04:00:17.724Z,4.70
2019-03-03T04:03:03.411Z,4.60
2019-03-03T04:05:57.554Z,4.47
2019-03-03T04:08:34.463Z,3.72
2019-03-03T04:11:23.013Z,4.70
2019-03-03T04:14:14.323Z,4.60
2019-03-03T04:17:09.132Z,4.53
2019-03-03T04:20:09.455Z,4.40
2019-03-03T04:22:44.612Z,4.70
2019-03-03T04:25:37.648Z,4.90
2019-03-03T04:28:38.486Z,5.47
2019-03-03T04:31:20.267Z,4.55
2019-03-03T04:34:09.332Z,4.35
2019-03-03T04:36:53.116Z,4.30
2019-03-03T04:39:34.776Z,4.10
2019-03-03T04:42:29.044Z,4.40
2019-03-03T04:45:08.583Z,4.30
2019-03-03T04:47:57.868Z,4.37
2019-03-03T04:50:46.303Z,3.90
2019-03-03T04:53:36.183Z,4.00
2019-03-03T04:56:23.916Z,4.00
2019-03-03T04:59:15.127Z,3.60
2019-03-03T05:02:06.762Z,3.97
2019-03-03T05:04:50.027Z,4.00
2019-03-03T05:07:40.991Z,3.90
2019-03-03T05:10:24.631Z,4.35
2019-03-03T05:12:58.930Z,3.90
2019-03-03T05:15:45.949Z,4.20
2019-03-03T05:18:43.033Z,3.50
2019-03-03T05:21:12.507Z,4.22
2019-03-03T05:23:41.576Z,4.05
2019-03-03T05:26:10.900Z,3.77
2019-03-03T05:28:40.235Z,4.10
2019-03-03T05:31:09.913Z,4.00
2019-03-03T05:33:39.323Z,3.92
2019-03-03T05:36:08.715Z,4.08
2019-03-03T05:38:37.760Z,4.27
2019-03-03T05:41:07.410Z,4.10
2019-03-03T05:43:36.765Z,4.50
2019-03-03T05:46:06.128Z,3.92
2019-03-03T05:48:35.785Z,3.90
2019-03-03T05:51:05.127Z,4.35
2019-03-03T05:53:34.177Z,4.20
2019-03-03T05:56:03.545Z,4.35
2019-03-03T05:58:32.925Z,5.22
2019-03-03T06:01:02.286Z,4.80
2019-03-03T06:03:31.339Z,4.28
2019-03-03T06:06:00.391Z,4.25
2019-03-03T06:08:29.751Z,4.30
2019-03-03T06:10:59.119Z,4.50
2019-03-03T06:13:28.246Z,4.22
2019-03-03T06:15:57.612Z,3.92
2019-03-03T06:18:27.639Z,4.05
2019-03-03T06:20:57.336Z,3.40
2019-03-03T06:23:26.380Z,3.60
2019-03-03T06:25:55.437Z,3.80
2019-03-03T06:28:24.852Z,3.52
2019-03-03T06:30:54.227Z,3.10
2019-03-03T06:33:23.284Z,3.52
2019-03-03T06:35:52.864Z,3.20
2019-03-03T06:38:22.388Z,3.60
2019-03-03T06:40:51.439Z,3.17
2019-03-03T06:43:20.507Z,3.50
2019-03-03T06:45:49.556Z,2.80
2019-03-03T06:48:19.221Z,3.87
2019-03-03T06:50:48.294Z,3.20
2019-03-03T06:53:17.351Z,3.20
2019-03-03T06:55:46.714Z,3.37
2019-03-03T06:58:16.420Z,3.00
2019-03-03T07:00:45.825Z,3.10
2019-03-03T07:03:14.879Z,3.10
2019-03-03T07:05:44.223Z,3.40
2019-03-03T07:08:13.612Z,3.33
2019-03-03T07:10:42.698Z,3.10
2019-03-03T07:13:11.767Z,3.40
2019-03-03T07:15:41.425Z,3.00
2019-03-03T07:18:11.236Z,3.10
2019-03-03T07:20:40.307Z,2.80
2019-03-03T07:23:09.356Z,2.60
2019-03-03T07:25:38.718Z,2.70
2019-03-03T07:28:07.763Z,2.60
2019-03-03T07:30:37.108Z,2.98
2019-03-03T07:33:31.612Z,3.02
2019-03-03T07:36:01.000Z,2.70
2019-03-03T07:38:30.046Z,2.20
2019-03-03T07:40:59.401Z,2.37
2019-03-03T07:43:28.460Z,2.58
2019-03-03T07:45:57.824Z,2.40
2019-03-03T07:48:26.872Z,2.60
2019-03-03T07:50:55.953Z,2.30
2019-03-03T07:53:25.007Z,2.42
2019-03-03T07:55:54.076Z,2.40
2019-03-03T07:58:23.474Z,2.45
2019-03-03T08:00:52.508Z,2.22
2019-03-03T08:03:21.864Z,2.02
2019-03-03T08:05:51.480Z,2.52
2019-03-03T08:08:20.916Z,2.30
2019-03-03T08:10:49.987Z,2.27
2019-03-03T08:13:19.309Z,2.10
2019-03-03T08:15:48.444Z,2.30
2019-03-03T08:18:17.778Z,2.30
2019-03-03T08:20:46.839Z,2.15
2019-03-03T08:23:15.911Z,2.12
2019-03-03T08:25:44.972Z,2.20
2019-03-03T08:28:14.071Z,2.40
2019-03-03T08:30:43.494Z,2.30
2019-03-03T08:33:12.967Z,2.47
2019-03-03T08:35:42.348Z,2.33
2019-03-03T08:38:11.429Z,2.60
2019-03-03T08:40:40.467Z,2.30
2019-03-03T08:43:20.488Z,2.60
2019-03-03T08:46:02.168Z,2.27
2019-03-03T08:48:41.795Z,2.65
2019-03-03T08:51:18.799Z,2.40
2019-03-03T08:54:11.148Z,2.60
2019-03-03T08:56:50.683Z,2.50
2019-03-03T08:59:39.119Z,2.30
2019-03-03T09:02:24.191Z,2.12
2019-03-03T09:05:05.784Z,2.15
2019-03-03T09:08:00.998Z,2.30
2019-03-03T09:10:47.193Z,2.27
2019-03-03T09:13:41.335Z,2.27
2019-03-03T09:16:23.890Z,2.10
2019-03-03T09:19:11.999Z,2.22
2019-03-03T09:21:50.747Z,2.30
2019-03-03T09:24:28.743Z,1.82
2019-03-03T09:27:07.055Z,2.17
2019-03-03T09:30:08.207Z,2.15
2019-03-03T09:33:02.687Z,2.15
2019-03-03T09:35:42.846Z,1.90
2019-03-03T09:38:20.040Z,1.87
2019-03-03T09:41:09.558Z,2.30
2019-03-03T09:43:58.623Z,2.10
2019-03-03T09:46:49.846Z,2.05
2019-03-03T09:49:24.168Z,2.15
2019-03-03T09:52:04.049Z,2.05
2019-03-03T09:54:52.302Z,2.22
2019-03-03T09:57:37.869Z,2.60
2019-03-03T10:00:18.532Z,1.90
2019-03-03T10:03:04.124Z,2.08
2019-03-03T10:05:42.622Z,2.10
2019-03-03T10:08:30.744Z,2.40
2019-03-03T10:11:12.039Z,2.22
2019-03-03T10:14:03.883Z,2.37
2019-03-03T10:16:52.643Z,2.30
2019-03-03T10:19:36.988Z,2.22
2019-03-03T10:22:19.201Z,2.50
2019-03-03T10:25:10.363Z,2.20
2019-03-03T10:27:47.684Z,2.30
2019-03-03T10:30:28.993Z,2.55
2019-03-03T10:33:15.799Z,2.00
2019-03-03T10:35:58.508Z,2.10
2019-03-03T10:38:40.285Z,2.40
2019-03-03T10:41:37.338Z,2.30
2019-03-03T10:44:24.343Z,2.00
2019-03-03T10:47:11.776Z,2.35
2019-03-03T10:49:56.329Z,2.47
2019-03-03T10:52:30.783Z,2.25
2019-03-03T10:55:08.647Z,2.08
2019-03-03T10:57:47.471Z,2.30
2019-03-03T11:00:41.871Z,2.25
2019-03-03T11:03:21.195Z,2.30
2019-03-03T11:06:08.331Z,2.27
2019-03-03T11:08:52.874Z,2.60
2019-03-03T11:11:50.309Z,2.25
2019-03-03T11:14:44.324Z,2.70
2019-03-03T11:17:35.555Z,2.62
2019-03-03T11:20:23.005Z,2.55
2019-03-03T11:23:10.369Z,2.45
2019-03-03T11:25:58.100Z,2.47
2019-03-03T11:29:04.688Z,2.12
2019-03-03T11:31:51.895Z,2.45
2019-03-03T11:34:40.857Z,2.70
2019-03-03T11:37:16.607Z,2.37
2019-03-03T11:40:02.515Z,2.20
2019-03-03T11:42:48.072Z,2.60
2019-03-03T11:45:34.878Z,2.30
2019-03-03T11:48:29.370Z,2.20
2019-03-03T11:51:09.246Z,2.33
2019-03-03T11:53:44.776Z,2.30
2019-03-03T11:56:30.770Z,2.05
2019-03-03T11:59:18.241Z,2.20
2019-03-03T12:01:56.517Z,2.25
2019-03-03T12:04:53.754Z,2.80
2019-03-03T12:07:39.551Z,2.05
2019-03-03T12:10:34.225Z,2.02
2019-03-03T12:13:22.070Z,2.10
2019-03-03T12:16:19.827Z,2.30
2019-03-03T12:19:14.424Z,2.50
2019-03-03T12:22:07.492Z,2.30
2019-03-03T12:24:54.458Z,2.37
2019-03-03T12:27:55.032Z,2.67
2019-03-03T12:30:45.925Z,2.20
2019-03-03T12:33:30.089Z,2.20
2019-03-03T12:36:21.599Z,2.30
2019-03-03T12:39:06.242Z,2.70
2019-03-03T12:41:50.556Z,2.50
2019-03-03T12:44:34.975Z,2.50
2019-03-03T12:47:32.415Z,2.22
2019-03-03T12:50:19.536Z,2.87
2019-03-03T12:53:26.215Z,2.35
2019-03-03T12:56:13.163Z,2.72
2019-03-03T12:58:59.230Z,2.50
2019-03-03T13:01:48.896Z,2.95
2019-03-03T13:04:38.878Z,2.17
2019-03-03T13:07:25.692Z,2.58
2019-03-03T13:10:12.746Z,2.67
2019-03-03T13:12:49.463Z,2.17
2019-03-03T13:15:36.583Z,1.83
2019-03-03T13:18:31.043Z,2.30
2019-03-03T13:21:25.194Z,2.70
2019-03-03T13:24:00.718Z,2.60
2019-03-03T13:26:36.059Z,2.87
2019-03-03T13:29:20.611Z,2.57
2019-03-03T13:32:08.721Z,2.50
2019-03-03T13:34:45.003Z,2.13
2019-03-03T13:37:30.603Z,2.10
2019-03-03T13:40:12.091Z,2.37
2019-03-03T13:42:54.223Z,1.83
2019-03-03T13:45:23.580Z,2.07
2019-03-03T13:47:53.034Z,1.90
2019-03-03T13:50:22.362Z,2.23
2019-03-03T13:52:51.691Z,3.00
2019-03-03T13:55:21.091Z,2.00
2019-03-03T13:57:50.132Z,1.93
2019-03-03T14:00:20.803Z,2.17
2019-03-03T14:02:50.089Z,2.23
2019-03-03T14:05:21.358Z,2.30
2019-03-03T14:07:50.967Z,1.90
2019-03-03T14:10:20.576Z,2.60
2019-03-03T14:12:50.075Z,1.73
2019-03-03T14:15:19.538Z,1.67
2019-03-03T14:17:49.191Z,1.63
2019-03-03T14:20:20.378Z,1.47
2019-03-03T14:22:49.565Z,1.93
2019-03-03T14:25:18.927Z,1.60
2019-03-03T14:27:47.964Z,2.10
2019-03-03T14:30:19.161Z,2.27
2019-03-03T14:32:48.302Z,1.90
2019-03-03T14:35:17.673Z,1.00
2019-03-03T14:37:46.724Z,1.33
2019-03-03T14:40:17.103Z,1.60
2019-03-03T14:42:46.484Z,1.47
2019-03-03T14:45:16.587Z,1.57
2019-03-03T14:47:46.012Z,1.33
2019-03-03T14:50:16.400Z,1.80
2019-03-03T14:52:46.631Z,1.50
2019-03-03T14:55:16.767Z,1.53
2019-03-03T14:57:46.178Z,1.63
2019-03-03T15:00:23.277Z,1.90
2019-03-03T15:02:52.946Z,1.50
2019-03-03T15:05:23.152Z,2.07
2019-03-03T15:07:52.174Z,1.70
2019-03-03T15:10:21.333Z,1.67
2019-03-03T15:12:50.683Z,1.87
2019-03-03T15:15:20.901Z,2.10
2019-03-03T15:17:49.935Z,1.60
2019-03-03T15:20:19.296Z,1.70
2019-03-03T15:22:48.595Z,1.50
2019-03-03T15:25:17.765Z,2.20
2019-03-03T15:27:47.089Z,1.87
2019-03-03T15:30:18.375Z,1.63
2019-03-03T15:32:47.779Z,1.60
2019-03-03T15:35:17.150Z,1.80
2019-03-03T15:37:46.549Z,1.67
2019-03-03T15:40:17.148Z,2.27
2019-03-03T15:42:46.268Z,1.50
2019-03-03T15:45:18.785Z,1.50
2019-03-03T15:47:48.141Z,1.23
2019-03-03T15:50:18.435Z,1.40
2019-03-03T15:52:47.865Z,1.37
2019-03-03T15:55:17.214Z,1.27
2019-03-03T15:57:46.267Z,1.60
2019-03-03T16:00:20.726Z,1.80
2019-03-03T16:02:50.093Z,1.87
2019-03-03T16:05:19.480Z,1.37
2019-03-03T16:07:48.572Z,1.97
2019-03-03T16:10:17.634Z,2.70
2019-03-03T16:12:47.555Z,2.90
2019-03-03T16:15:16.939Z,1.87
2019-03-03T16:17:45.995Z,1.57
2019-03-03T16:20:16.937Z,1.63
2019-03-03T16:22:46.184Z,1.47
2019-03-03T16:25:16.355Z,1.87
2019-03-03T16:27:45.745Z,1.67
2019-03-03T16:30:17.960Z,2.10
2019-03-03T16:32:47.331Z,2.77
2019-03-03T16:35:16.913Z,6.10
2019-03-03T16:37:45.967Z,3.10
2019-03-03T16:40:17.174Z,2.30
2019-03-03T16:42:46.223Z,1.57
2019-03-03T16:45:15.527Z,1.83
2019-03-03T16:47:45.175Z,1.77
2019-03-03T16:50:16.211Z,2.07
2019-03-03T16:52:46.112Z,1.87
2019-03-03T16:55:15.511Z,2.80
2019-03-03T16:57:44.910Z,2.40
2019-03-03T17:00:16.440Z,2.40
2019-03-03T17:02:45.764Z,1.83
2019-03-03T17:05:15.900Z,2.80
2019-03-03T17:07:44.957Z,2.70
2019-03-03T17:10:14.150Z,2.80
2019-03-03T17:12:43.212Z,2.50
2019-03-03T17:15:17.266Z,2.00
2019-03-03T17:17:46.321Z,2.57
2019-03-03T17:20:15.472Z,2.30
2019-03-03T17:22:44.572Z,2.20
2019-03-03T17:25:15.775Z,2.50
2019-03-03T17:27:45.160Z,2.60
2019-03-03T17:30:16.696Z,2.60
2019-03-03T17:32:45.733Z,2.93
2019-03-03T17:35:15.287Z,2.30
2019-03-03T17:37:44.659Z,2.33
2019-03-03T17:40:15.912Z,2.50
2019-03-03T17:42:45.415Z,3.80
2019-03-03T17:45:16.342Z,3.10
2019-03-03T17:47:45.647Z,2.60
2019-03-03T17:50:15.778Z,2.03
2019-03-03T17:52:45.229Z,2.47
2019-03-03T17:55:15.792Z,2.13
2019-03-03T17:57:44.860Z,2.00
2019-03-03T18:00:16.340Z,2.03
2019-03-03T18:02:45.378Z,4.00
2019-03-03T18:05:16.667Z,2.27
2019-03-03T18:07:46.025Z,3.70
2019-03-03T18:10:15.221Z,2.23
2019-03-03T18:12:44.350Z,2.30
2019-03-03T18:15:13.880Z,2.97
2019-03-03T18:17:43.284Z,2.93
2019-03-03T18:20:13.447Z,3.00
2019-03-03T18:22:42.495Z,2.40
2019-03-03T18:25:13.215Z,2.93
2019-03-03T18:27:42.529Z,2.77
2019-03-03T18:30:14.787Z,2.60
2019-03-03T18:32:44.100Z,2.87
2019-03-03T18:35:13.362Z,3.63
2019-03-03T18:37:42.690Z,2.67
2019-03-03T18:40:12.375Z,2.30
2019-03-03T18:42:41.828Z,2.00
2019-03-03T18:45:12.470Z,2.30
2019-03-03T18:47:41.839Z,3.30
2019-03-03T18:50:12.676Z,3.10
2019-03-03T18:52:42.077Z,2.53
2019-03-03T18:55:11.683Z,2.67
2019-03-03T18:57:41.190Z,2.60
2019-03-03T19:00:15.656Z,2.30
2019-03-03T19:02:45.011Z,2.50
2019-03-03T19:05:14.054Z,2.30
2019-03-03T19:07:43.453Z,2.53
2019-03-03T19:10:14.235Z,2.03
2019-03-03T19:12:43.274Z,2.37
2019-03-03T19:15:14.813Z,2.07
2019-03-03T19:17:43.857Z,2.20
2019-03-03T19:20:13.796Z,2.00
2019-03-03T19:22:43.110Z,1.87
2019-03-03T19:25:12.991Z,1.97
2019-03-03T19:27:42.612Z,1.43
2019-03-03T19:30:17.684Z,1.57
2019-03-03T19:32:48.063Z,1.80
2019-03-03T19:35:17.593Z,1.80
2019-03-03T19:37:46.980Z,1.60
2019-03-03T19:40:16.587Z,2.10
2019-03-03T19:42:45.913Z,2.00
2019-03-03T19:45:18.460Z,2.30
2019-03-03T19:47:47.562Z,2.17
2019-03-03T19:50:17.165Z,4.00
2019-03-03T19:52:46.398Z,4.87
2019-03-03T19:55:16.004Z,7.20
2019-03-03T19:57:45.135Z,4.40
2019-03-03T20:00:18.140Z,2.27
2019-03-03T20:02:47.271Z,3.80
2019-03-03T20:05:16.393Z,3.20
2019-03-03T20:07:45.739Z,7.13
2019-03-03T20:10:15.067Z,6.80
2019-03-03T20:12:44.151Z,9.67
2019-03-03T20:15:13.635Z,7.60
2019-03-03T20:17:43.050Z,5.83
2019-03-03T20:20:13.895Z,6.30
2019-03-03T20:22:42.956Z,3.27
2019-03-03T20:25:12.434Z,2.37
2019-03-03T20:27:41.875Z,2.30
2019-03-03T20:30:13.695Z,1.50
2019-03-03T20:32:42.747Z,1.67
2019-03-03T20:35:11.805Z,1.90
2019-03-03T20:37:41.161Z,2.70
2019-03-03T20:40:12.131Z,6.33
2019-03-03T20:42:41.229Z,6.40
2019-03-03T20:45:15.371Z,7.10
2019-03-03T20:47:44.451Z,6.03
2019-03-03T20:50:16.354Z,5.77
2019-03-03T20:52:45.411Z,2.87
2019-03-03T20:55:15.767Z,3.07
2019-03-03T20:57:45.150Z,5.70
2019-03-03T21:00:19.704Z,6.13
2019-03-03T21:02:49.081Z,6.20
2019-03-03T21:05:18.334Z,5.80
2019-03-03T21:07:51.297Z,3.63
2019-03-03T21:10:20.168Z,2.60
2019-03-03T21:12:49.455Z,1.97
2019-03-03T21:15:18.854Z,2.60
2019-03-03T21:17:48.282Z,2.53
2019-03-03T21:20:18.381Z,2.37
2019-03-03T21:22:47.575Z,1.70
2019-03-03T21:25:16.636Z,1.70
2019-03-03T21:27:46.540Z,1.90
2019-03-03T21:30:18.048Z,2.43
2019-03-03T21:32:47.116Z,1.80
2019-03-03T21:35:16.134Z,2.30
2019-03-03T21:37:45.508Z,2.07
2019-03-03T21:40:16.360Z,2.83
2019-03-03T21:42:45.425Z,2.43
2019-03-03T21:45:16.292Z,3.63
2019-03-03T21:47:45.408Z,3.40
2019-03-03T21:50:15.998Z,2.60
2019-03-03T21:52:45.343Z,2.60
2019-03-03T21:55:14.769Z,2.63
2019-03-03T21:57:43.846Z,1.70
2019-03-03T22:00:20.039Z,1.80
2019-03-03T22:02:49.406Z,2.00
2019-03-03T22:05:18.489Z,2.57
2019-03-03T22:07:47.535Z,2.63
2019-03-03T22:10:16.952Z,2.73
2019-03-03T22:12:46.017Z,3.87
2019-03-03T22:15:15.540Z,3.70
2019-03-03T22:17:45.159Z,3.40
2019-03-03T22:20:14.569Z,3.50
2019-03-03T22:22:43.631Z,3.47
2019-03-03T22:25:12.726Z,2.70
2019-03-03T22:27:41.771Z,2.30
2019-03-03T22:30:10.828Z,3.00
2019-03-03T22:32:39.883Z,2.67
2019-03-03T22:35:09.245Z,2.70
2019-03-03T22:37:38.634Z,2.53
2019-03-03T22:40:09.570Z,1.70
2019-03-03T22:42:38.639Z,1.50
2019-03-03T22:45:09.628Z,1.70
2019-03-03T22:47:39.011Z,1.47
2019-03-03T22:50:08.804Z,1.53
2019-03-03T22:52:38.426Z,1.80
2019-03-03T22:55:08.124Z,1.67
2019-03-03T22:57:37.168Z,1.83
2019-03-03T23:00:19.151Z,1.53
2019-03-03T23:02:48.524Z,1.60
2019-03-03T23:05:22.724Z,1.60
2019-03-03T23:08:02.904Z,1.60
2019-03-03T23:10:54.511Z,1.60
2019-03-03T23:13:53.854Z,1.37
2019-03-03T23:16:49.602Z,1.40
2019-03-03T23:19:59.591Z,1.47
2019-03-03T23:23:06.064Z,1.50
2019-03-03T23:26:00.060Z,1.63
2019-03-03T23:28:29.446Z,1.27
2019-03-03T23:30:58.813Z,1.40
2019-03-03T23:33:28.145Z,1.20
2019-03-03T23:35:57.538Z,1.30
2019-03-03T23:38:26.844Z,1.23
2019-03-03T23:40:56.248Z,1.60
2019-03-03T23:43:25.284Z,1.60
2019-03-03T23:45:54.641Z,1.40
2019-03-03T23:48:23.696Z,1.57
2019-03-03T23:50:53.036Z,1.60
2019-03-03T23:53:22.157Z,1.60
2019-03-03T23:55:51.220Z,1.40
2019-03-03T23:58:20.294Z,1.50
